Mirabel, Canada
Current Conditions -  °F | °C
As of 11:00 PM on Tuesday 25 Nov 2014 (Local Time) from CYMX Reporting Station
Broken Clouds Broken Clouds  
Wind Chill: 26°   Ceiling: 5100
Heat Index: 36°   Visibility: 25mi
Dew Point: 25°   Wind: 16mph
Humidity: 65%   Direction: 240°WSW
Pressure: 30.04"   Gusts: 23mph
Location:  45.67°N, 73.98°W
Report Text: CYMX 260400Z 24014G20KT 25SM FEW038 BKN051 BKN090 02/M04 A3004 RMK SC2SC3AC1 SLP175
Loading
Personal Weather Stations






























Interactive Weather Map New forecast layout! Learn more

10-Day Weather Forecast

Advertisements
Track Severe Weather on mobile